AirNav   Pilot Hours Calculator
 
 1238 users online  

69MY Hall Airport
Farmington, Minnesota, USA

GOING TO FARMINGTON?


FAA INFORMATION EFFECTIVE 09 SEPTEMBER 2021

Location

FAA Identifier: 69MY
Lat/Long: 44-39-39.8770N 093-06-00.7740W
44-39.664617N 093-06.012900W
44.6610769,-93.1002150
(estimated)
Elevation: 875 ft. / 267 m (estimated)
Variation: 03E (1985)
From city: 2 miles NE of FARMINGTON, MN
Time zone: UTC -5 (UTC -6 during Standard Time)
Zip code: 55024

Airport Operations

Airport use: Private use. Permission required prior to landing
Activation date: 12/1985
Control tower: no
ARTCC: MINNEAPOLIS CENTER
FSS: PRINCETON FLIGHT SERVICE STATION
Attendance: 0600-2400
Wind indicator: yes
Segmented circle: no

Airport Communications

WX AWOS-3 at LVN (6 nm W): 118.0 (952-469-5850)
WX AWOS-3 at SYN (12 nm S): 119.35 (507-664-3806)
WX AWOS-3 at SGS (12 nm N): 119.425 (651-457-8120)
WX ASOS at MSP (14 nm N): PHONE 612-713-4174
WX ASOS at STP (17 nm N): 118.35 (651-312-8888)
WX ASOS at FCM (18 nm NW): PHONE 952-941-4156

Nearby radio navigation aids

VOR radial/distance  VOR name  Freq  Var
FGTr057/3.9FARMINGTON VORTAC115.7006E
MSPr156/15.3MINNEAPOLIS VOR/DME115.3002E
FCMr123/17.6FLYING CLOUD VOR/DME117.7001E
FOWr021/29.7HALFWAY VOR/DME111.2002E
GEPr152/31.3GOPHER VORTAC117.3006E

Airport Services

Runway Information

Runway 9/27

Dimensions: 2600 x 80 ft. / 792 x 24 m
Surface: turf
RUNWAY 9  RUNWAY 27
Traffic pattern: leftleft

Airport Ownership and Management from official FAA records

Ownership: Privately-owned
Owner: JEFFREY C. HALL
1535 200 ST WEST
FARMINGTON, MN 55024
Phone 763-783-7032
EXTENSION 12.
Manager: JEFFREY C. HALL
1535 200 ST WEST
FARMINGTON, MN 55024
Phone 763-783-7032
EXTENSION 12.

Airport Operational Statistics

Aircraft based on the field: 1
Single engine airplanes: 1
    

Additional Remarks

FOR CD CTC MINNEAPOLIS ARTCC AT 651-463-5588.

Instrument Procedures

There are no published instrument procedures at 69MY.

Some nearby airports with instrument procedures:

KLVN - Airlake Airport (6 nm W)
KSGS - South St Paul Municipal Airport-Richard E Fleming Field (12 nm N)
KMSP - Minneapolis-St Paul International/Wold-Chamberlain Airport (14 nm N)
KSTP - St Paul Downtown Airport Holman Field (16 nm N)
KFCM - Flying Cloud Airport (18 nm NW)
 
Loc | Ops | Rwys | IFR | FBO | Links
Com | Nav | Svcs | Stats | Notes
Area around 69MY (Hall Airport)
 
Road maps at: MapQuest Bing Google
 
Aerial photo
No photo
 
Sectional chart

 
Airport distance calculator
Flying to Hall Airport? Find the distance to fly.

From to 69MY

Sunrise and sunset
Times for 16-Sep-2021
 Local
(UTC-5)
 Zulu
(UTC)
Morning civil twilight06:2411:24
Sunrise06:5311:53
Sunset19:2100:21
Evening civil twilight19:5000:50

Current date and time
Zulu (UTC)  16-Sep-2021 22:35:04
Local (UTC-5)  16-Sep-2021 17:35:04
 
METAR
KLVN 
6nm SW 
162215Z AUTO 18011G17KT 10SM CLR 30/14 A2974 RMK AO2
KSGS 
12nm N 
162215Z AUTO 17014G20KT 10SM CLR 31/15 A2972 RMK AO2 T03050147
KSYN 
12nm S 
162215Z AUTO 19020G25KT 10SM CLR 30/15 A2974 RMK AO2 T03010149
KMSP 
14nm NW 
162153Z 18021G30KT 10SM FEW250 31/16 A2971 RMK AO2 PK WND 18036/2137 SLP055 T03110161
KSTP 
16nm N 
162153Z 18020G34KT 10SM CLR 30/16 A2972 RMK AO2 PK WND 18034/2148 SLP056 T03000161
KFCM 
19nm NW 
162153Z 18017G31KT 10SM CLR 31/17 A2969 RMK AO2 PK WND 17035/2122 SLP048 T03060167
TAF
KMSP 
14nm NW 
162025Z 1620/1724 18022G34KT P6SM SKC FM170100 19013G22KT P6SM SCT250 WS020/20045KT FM170600 21009KT P6SM VCTS OVC070CB WS020/22040KT FM170800 26007KT P6SM SHRA VCTS SCT020 BKN040CB FM170900 30008KT P6SM SHRA OVC045 FM171200 34007KT P6SM OVC060
NOTAMs
Click for the latest NOTAMs
NOTAMs are issued by the DoD/FAA and will open in a separate window not controlled by AirNav.

 

 
 

Would you like to see your business listed on this page?

 If your business provides an interesting product or service to pilots, flight crews, aircraft, or users of the Hall Airport, you should consider listing it here.  To start the listing process, click on the button below
 
Add a business
 

Other Pages about Hall Airport

Update a link
 
Copyright © AirNav, LLC. All rights reserved. Privacy Policy  Contact